Flight Track Log - Related Links

Times and Time Zones

All times are in EDT time to prevent confusion due to time zone crossing. See the CTL14 flight status page for this flight to view local times or setup timezone preferences in your user account.

Time Position Orientation Groundspeed Altitude Reporting Facility
EDT Latitude Longitude Course Direction KTS MPH feet Rate Location/Type
Tue 12:27:02 AM 42.2000 -87.8500 118° Southeast 166 191 2,200  Level Chicago TRACON
Tue 12:27:56 AM 42.2000 -87.8000 90° East 157 181 2,800 423 Climbing Chicago TRACON
Tue 12:28:13 AM 42.2044 -87.7947 41° Northeast 161 185 2,700 462 Descending Chicago Center
Tue 12:29:14 AM 42.2078 -87.7356 86° East 160 184 3,400 545 Climbing Chicago Center
Tue 12:30:14 AM 42.2108 -87.6772 86° East 158 182 3,800 545 Climbing Chicago Center
Tue 12:31:15 AM 42.1811 -87.6167 124° Southeast 162 186 4,500 590 Climbing Chicago Center
Tue 12:32:00 AM 41.1516 -85.5197 118° Southeast  Level Estimated
Tue 12:32:16 AM 42.1597 -87.5633 118° Southeast 162 186 5,000  Level Chicago Center
Tue 12:33:16 AM 42.1394 -87.5117 118° Southeast 160 184 5,600 496 Climbing Chicago Center
Tue 12:34:17 AM 42.1175 -87.4625 121° Southeast 157 181 6,000 393 Climbing Chicago Center
Tue 12:35:18 AM 42.0942 -87.4128 122° Southeast 156 180 6,400 393 Climbing Chicago Center
Tue 12:36:19 AM 42.0717 -87.3611 120° Southeast 158 182 6,800 248 Climbing Chicago Center
Tue 12:37:19 AM 42.0511 -87.3072 117° Southeast 160 184 6,900 50 Climbing Chicago Center
Tue 12:38:19 AM 42.0269 -87.2481 119° Southeast 172 198 6,900  Level Chicago Center
Tue 12:39:20 AM 42.0019 -87.1897 120° Southeast 178 205 6,900  Level Chicago Center
Tue 12:40:20 AM 41.9756 -87.1322 122° Southeast 180 207 6,900  Level Chicago Center
Tue 12:41:21 AM 41.9483 -87.0733 122° Southeast 184 212 6,900 50 Level Chicago Center
Tue 12:42:21 AM 41.9253 -87.0136 117° Southeast 182 209 7,000  Climbing Chicago Center
Tue 12:43:22 AM 41.9003 -86.9556 120° Southeast 181 208 6,900 -49 Descending Chicago Center
Tue 12:44:23 AM 41.8750 -86.8958 120° Southeast 183 211 6,900  Level Chicago Center
Tue 12:45:23 AM 41.8469 -86.8378 123° Southeast 184 212 6,900  Level Chicago Center
Tue 12:46:24 AM 41.8219 -86.7786 120° Southeast 183 211 6,900  Level Chicago Center
Tue 12:47:24 AM 41.7869 -86.7103 124° Southeast 185 213 6,900  Level Chicago Center
Tue 12:48:25 AM 41.7561 -86.6656 133° Southeast 189 217 6,900  Level Chicago Center
Tue 12:49:25 AM 41.7314 -86.6056 119° Southeast 186 214 6,900  Level Chicago Center
Tue 12:50:26 AM 41.7083 -86.5444 117° Southeast 183 211 6,900  Level Chicago Center
Tue 12:51:26 AM 41.6811 -86.4850 122° Southeast 187 215 6,900  Level Chicago Center
Tue 12:52:27 AM 41.6544 -86.4247 121° Southeast 188 216 6,900  Level Chicago Center
Tue 12:53:27 AM 41.6253 -86.3650 123° Southeast 191 220 6,900  Level Chicago Center
Tue 12:54:28 AM 41.5989 -86.3058 121° Southeast 187 215 6,900  Level Chicago Center
Tue 12:55:28 AM 41.5658 -86.2331 121° Southeast 191 220 6,900  Level Chicago Center
Tue 12:56:28 AM 41.5375 -86.1733 122° Southeast 192 221 6,900  Level Chicago Center
Tue 12:57:29 AM 41.5092 -86.1133 122° Southeast 191 220 6,900  Level Chicago Center
Tue 12:58:29 AM 41.4786 -86.0544 125° Southeast 193 222 6,900 50 Level Chicago Center
Tue 12:59:30 AM 41.4508 -85.9953 122° Southeast 190 219 7,000  Climbing Chicago Center
Tue 01:00:30 AM 41.4219 -85.9364 123° Southeast 192 221 6,900 -50 Descending Chicago Center
Tue 01:01:31 AM 41.3939 -85.8767 122° Southeast 191 220 6,900 50 Level Chicago Center
Tue 01:02:31 AM 41.3656 -85.8172 122° Southeast 191 220 7,000 50 Climbing Chicago Center
Tue 01:03:32 AM 41.3372 -85.7589 123° Southeast 190 219 7,000 50 Level Chicago Center
Tue 01:04:32 AM 41.3092 -85.7000 122° Southeast 189 217 7,100 -50 Climbing Chicago Center
Tue 01:05:32 AM 41.2814 -85.6403 122° Southeast 191 220 6,900 -99 Descending Chicago Center
Tue 01:06:33 AM 41.2533 -85.5808 122° Southeast 192 221 6,900  Level Chicago Center
Tue 01:07:33 AM 41.2264 -85.5194 120° Southeast 194 223 6,900 50 Level Chicago Center
Tue 01:08:34 AM 41.1986 -85.4600 122° Southeast 191 220 7,000  Climbing Chicago Center
Tue 01:09:34 AM 41.1708 -85.4008 122° Southeast 191 220 6,900  Descending Chicago Center
Tue 01:10:35 AM 41.1428 -85.3411 122° Southeast 191 220 7,000 50 Climbing Chicago Center
Tue 01:11:35 AM 41.1181 -85.2817 119° Southeast 186 214 7,000 -50 Level Chicago Center
Tue 01:12:35 AM 41.0897 -85.2242 123° Southeast 187 215 6,900 -50 Descending Chicago Center
Tue 01:13:36 AM 41.0619 -85.1653 122° Southeast 188 216 6,900 -50 Level Chicago Center
Tue 01:14:36 AM 41.0300 -85.0942 121° Southeast 188 216 6,800 -50 Descending Chicago Center
Tue 01:15:37 AM 41.0025 -85.0378 123° Southeast 185 213 6,800 50 Level Chicago Center
Tue 01:16:37 AM 40.9789 -84.9756 117° Southeast 187 215 6,900 50 Climbing Chicago Center
Tue 01:17:38 AM 40.9514 -84.9175 122° Southeast 188 216 6,900  Level Chicago Center
Tue 01:18:38 AM 40.9183 -84.8639 129° Southeast 190 219 6,900  Level Chicago Center
Tue 01:19:39 AM 40.8922 -84.8047 120° Southeast 187 215 6,900  Level Chicago Center
Tue 01:20:39 AM 40.8650 -84.7464 122° Southeast 187 215 6,900 50 Level Chicago Center
Tue 01:21:40 AM 40.8378 -84.6869 121° Southeast 189 217 7,000 50 Climbing Chicago Center
Tue 01:22:40 AM 40.8161 -84.6247 115° Southeast 187 215 7,000  Level Chicago Center
Tue 01:23:30 AM 40.7925 -84.5775 123° Southeast 187 215 7,000  Level Indianapolis Center
Tue 01:24:30 AM 40.7661 -84.5178 120° Southeast 187 215 7,000  Level Indianapolis Center
Tue 01:25:31 AM 40.7375 -84.4558 121° Southeast 194 223 7,000 -50 Level Indianapolis Center
Tue 01:26:31 AM 40.7108 -84.3958 120° Southeast 190 219 6,900  Descending Indianapolis Center
Tue 01:27:00 AM 40.6956 -84.3683 126° Southeast 190 219 7,000 100 Climbing Indianapolis Center
Tue 01:27:31 AM 40.6825 -84.3372 119° Southeast 189 217 7,000 -65 Level Indianapolis Center
Tue 01:28:32 AM 40.6550 -84.2767 121° Southeast 190 219 6,900 -50 Descending Indianapolis Center
Tue 01:29:32 AM 40.6264 -84.2142 121° Southeast 194 223 6,900  Level Indianapolis Center
Tue 01:30:33 AM 40.5969 -84.1553 123° Southeast 193 222 6,900  Level Indianapolis Center
Tue 01:31:33 AM 40.5703 -84.0961 121° Southeast 188 216 6,900 -50 Level Indianapolis Center
Tue 01:32:33 AM 40.5419 -84.0367 122° Southeast 190 219 6,800 -198 Descending Indianapolis Center
Tue 01:33:34 AM 40.5128 -83.9756 122° Southeast 193 222 6,500 -298 Descending Indianapolis Center
Tue 01:34:34 AM 40.4811 -83.9131 124° Southeast 199 229 6,200 -397 Descending Indianapolis Center
Tue 01:35:35 AM 40.4514 -83.8489 121° Southeast 201 231 5,700 -446 Descending Indianapolis Center
Tue 01:36:35 AM 40.4217 -83.7858 122° Southeast 202 232 5,300 -400 Descending Indianapolis Center
Tue 01:37:35 AM 40.3897 -83.7231 124° Southeast 203 234 4,900 -397 Descending Indianapolis Center
Tue 01:38:36 AM 40.3631 -83.6706 124° Southeast 204 235 4,500 -397 Descending Indianapolis Center
Tue 01:39:36 AM 40.3336 -83.6081 122° Southeast 202 232 4,100 -397 Descending Indianapolis Center
Tue 01:40:37 AM 40.3042 -83.5467 122° Southeast 199 229 3,700 -347 Descending Indianapolis Center
Tue 01:41:37 AM 40.2747 -83.4872 123° Southeast 196 226 3,400 -300 Descending Indianapolis Center
Tue 01:42:37 AM 40.2456 -83.4281 123° Southeast 193 222 3,100 -149 Descending Indianapolis Center
Tue 01:43:38 AM 40.2183 -83.3722 123° Southeast 193 222 3,100  Level Indianapolis Center
Tue 01:45:00 AM 40.1758 -83.2848 123° Southeast  Level FlightAware Approximate
Tue 01:52:00 AM 40.0798 -83.0732 123° Southeast  Level Estimated
Tue 01:53:00 AM 40.0798 -83.0732 123° Southeast  Level Estimated

Login

Don't have an account? Register now (free) for customized features, flight alerts, and more!